Time;durP1;ratioP1;P1;durP2;ratioP2;P2;SDS_P1;SDS_P2;PMS_P1;PMS_P2;Temp;Humidity;BMP_temperature;BMP_pressure;BME280_temperature;BME280_humidity;BME280_pressure;Samples;Min_cycle;Max_cycle;Signal;HPM_P1;HPM_P2
2023/05/03 05:06:46;;;;;;;62.45;14.27;;;;;;;5.72;94.23;97374.25;2085442;27;20558;-59
2023/05/03 06:58:49;;;;;;;24.30;10.65;;;;;;;10.22;80.35;97380.75;2081085;28;20560;-60
2023/05/03 07:01:01;;;;;;;23.77;11.55;;;;;;;9.92;81.48;97384.28;2082369;28;20576;-60
2023/05/03 07:02:02;;;;;;;22.02;9.95;;;;;;;10.22;80.98;97385.97;2079298;28;20197;-61
2023/05/03 07:03:05;;;;;;;17.52;10.18;;;;;;;10.40;80.45;97388.06;2076184;28;20651;-61
2023/05/03 07:05:09;;;;;;;20.30;11.10;;;;;;;10.32;78.37;97376.13;2085807;27;20953;-61
2023/05/03 07:06:11;;;;;;;21.95;12.18;;;;;;;10.07;78.60;97384.72;2074055;28;20203;-60
2023/05/03 07:07:14;;;;;;;30.50;13.68;;;;;;;9.47;80.95;97384.72;2074673;28;20236;-61
2023/05/03 07:09:18;;;;;;;25.95;13.95;;;;;;;9.13;84.33;97378.72;2091495;27;21071;-60
2023/05/03 07:10:29;;;;;;;22.88;13.38;;;;;;;8.93;84.67;97379.25;2078266;28;20233;-60
2023/05/03 07:11:33;;;;;;;30.70;14.40;;;;;;;9.27;83.79;97380.09;2075440;28;20220;-61
2023/05/03 07:12:34;;;;;;;29.42;14.25;;;;;;;9.29;82.87;97380.88;2075211;28;20525;-61
2023/05/03 07:14:39;;;;;;;29.38;13.90;;;;;;;9.11;83.63;97377.88;2084213;28;20561;-61
2023/05/03 07:15:40;;;;;;;45.30;15.20;;;;;;;9.04;83.47;97376.38;2077038;28;20230;-60
2023/05/03 07:16:42;;;;;;;38.95;15.48;;;;;;;9.17;83.55;97378.63;2077834;28;20347;-60
2023/05/03 07:17:43;;;;;;;31.55;14.35;;;;;;;8.95;84.43;97385.28;2077199;28;20299;-60
2023/05/03 07:18:46;;;;;;;32.33;14.27;;;;;;;8.75;85.24;97383.19;2077019;28;20197;-60
2023/05/03 07:19:48;;;;;;;31.85;14.88;;;;;;;8.77;85.29;97372.72;2077027;28;20204;-60
2023/05/03 07:20:50;;;;;;;24.85;14.13;;;;;;;8.46;85.69;97381.31;2077303;28;20197;-60
2023/05/03 07:21:51;;;;;;;23.70;14.25;;;;;;;8.50;85.98;97385.53;2076920;28;20535;-60
2023/05/03 07:22:53;;;;;;;30.40;15.10;;;;;;;8.50;86.20;97373.38;2077014;28;20245;-62
2023/05/03 07:23:54;;;;;;;24.92;15.00;;;;;;;9.07;84.90;97378.03;2078338;28;20220;-62
2023/05/03 07:24:58;;;;;;;25.73;15.77;;;;;;;9.25;84.16;97371.44;2076360;28;20207;-62
2023/05/03 07:26:00;;;;;;;30.10;14.52;;;;;;;9.80;83.01;97380.28;2079455;28;20701;-62
2023/05/03 07:28:22;;;;;;;24.58;14.20;;;;;;;10.24;80.31;97377.19;2076600;28;20563;-60
2023/05/03 07:29:23;;;;;;;25.30;12.80;;;;;;;10.26;79.37;97380.63;2075248;28;20197;-61
2023/05/03 07:30:25;;;;;;;22.63;13.13;;;;;;;9.55;80.85;97348.00;2206216;23;20560;-60
2023/05/03 07:32:37;;;;;;;23.33;13.30;;;;;;;9.11;83.25;97370.06;2137032;23;20229;-60
2023/05/03 07:33:39;;;;;;;25.17;14.77;;;;;;;9.63;82.05;97370.34;2075049;28;20197;-60
2023/05/03 07:34:40;;;;;;;25.73;13.77;;;;;;;9.96;80.66;97369.38;2077728;28;20215;-60
2023/05/03 07:35:45;;;;;;;29.55;13.70;;;;;;;9.89;79.71;97363.50;2077780;28;20220;-60
2023/05/03 07:36:46;;;;;;;25.80;13.40;;;;;;;10.09;79.83;97373.34;2078079;28;20285;-60
2023/05/03 07:37:48;;;;;;;25.80;14.57;;;;;;;10.09;79.84;97360.28;2077439;28;20186;-60
2023/05/03 07:38:49;;;;;;;23.63;13.73;;;;;;;9.93;79.80;97372.94;2077842;28;20196;-60
2023/05/03 07:39:51;;;;;;;25.67;11.88;;;;;;;9.79;80.87;97367.31;2076402;28;20232;-60
2023/05/03 07:40:52;;;;;;;26.90;13.73;;;;;;;9.15;82.83;97370.84;2076585;28;20240;-60
2023/05/03 07:41:54;;;;;;;25.45;13.27;;;;;;;9.35;82.72;97370.28;2077184;28;20207;-60
2023/05/03 07:42:56;;;;;;;26.60;12.73;;;;;;;9.59;82.69;97379.16;2075097;28;20220;-62
2023/05/03 07:43:57;;;;;;;23.02;13.15;;;;;;;10.04;80.64;97369.16;2076271;28;20557;-62
2023/05/03 07:44:59;;;;;;;27.73;13.43;;;;;;;10.68;78.98;97371.47;2077693;28;20200;-60
2023/05/03 07:46:01;;;;;;;23.60;13.45;;;;;;;10.49;78.61;97371.25;2077305;28;20197;-60
2023/05/03 07:47:03;;;;;;;28.98;13.27;;;;;;;10.84;78.65;97365.72;2078283;28;20644;-60
2023/05/03 07:48:05;;;;;;;26.67;13.18;;;;;;;10.92;77.32;97366.34;2077297;28;20457;-60
2023/05/03 07:49:06;;;;;;;23.17;13.38;;;;;;;11.29;76.62;97380.72;2077989;28;20233;-60
2023/05/03 07:50:08;;;;;;;22.23;12.73;;;;;;;10.27;77.99;97377.13;2077665;28;20715;-60
2023/05/03 07:51:10;;;;;;;18.50;12.07;;;;;;;10.35;77.99;97381.22;2077911;28;20259;-60
2023/05/03 07:52:11;;;;;;;17.52;11.90;;;;;;;10.56;77.55;97374.50;2078046;28;20193;-60
2023/05/03 07:53:13;;;;;;;21.70;13.48;;;;;;;9.83;78.75;97332.41;2077310;28;20236;-60
2023/05/03 07:54:14;;;;;;;22.85;14.52;;;;;;;9.92;79.59;97363.41;2076662;28;20260;-60
2023/05/03 07:55:18;;;;;;;23.20;12.73;;;;;;;10.02;80.09;97369.22;2077446;28;20466;-60
2023/05/03 07:56:20;;;;;;;23.40;13.93;;;;;;;10.15;79.40;97376.66;2078038;28;20202;-60
2023/05/03 07:57:23;;;;;;;21.85;12.65;;;;;;;10.13;79.26;97374.06;2078050;28;20713;-60
2023/05/03 07:58:24;;;;;;;25.50;12.95;;;;;;;10.33;78.78;97354.34;2076917;28;20193;-61
2023/05/03 07:59:42;;;;;;;24.02;13.95;;;;;;;10.89;77.36;97369.91;2078010;28;20201;-60
2023/05/03 08:00:45;;;;;;;28.42;12.57;;;;;;;11.66;75.59;97357.59;2076320;28;20275;-63
2023/05/03 08:01:46;;;;;;;26.50;13.38;;;;;;;11.95;74.70;97363.44;2076646;28;20193;-60
2023/05/03 08:02:47;;;;;;;32.72;13.85;;;;;;;11.88;74.33;97361.09;2077430;28;20252;-60
2023/05/03 08:03:49;;;;;;;31.50;13.23;;;;;;;12.28;73.22;97369.19;2078025;28;20199;-60
2023/05/03 08:04:51;;;;;;;18.52;12.13;;;;;;;11.85;73.18;97348.13;2077452;28;20541;-60
2023/05/03 08:05:53;;;;;;;26.40;13.60;;;;;;;10.99;75.62;97365.19;2074443;28;20663;-60
2023/05/03 08:06:54;;;;;;;23.67;13.02;;;;;;;10.87;77.37;97358.66;2074707;28;20202;-61
2023/05/03 08:07:56;;;;;;;20.65;12.68;;;;;;;11.11;75.64;97366.53;2077910;28;20199;-63
2023/05/03 08:08:58;;;;;;;27.45;14.40;;;;;;;11.76;74.26;97365.03;2076988;28;20208;-63
2023/05/03 08:10:00;;;;;;;18.70;12.02;;;;;;;12.07;73.35;97365.63;2077268;28;20200;-61
2023/05/03 08:11:02;;;;;;;23.70;12.32;;;;;;;12.40;72.92;97363.44;2075779;28;20196;-60
2023/05/03 08:12:04;;;;;;;16.63;11.27;;;;;;;12.75;72.68;97362.91;2076325;28;20262;-60
2023/05/03 08:13:08;;;;;;;21.48;12.55;;;;;;;12.93;71.77;97363.88;2078112;28;20240;-62
2023/05/03 08:14:10;;;;;;;22.48;13.32;;;;;;;12.98;70.74;97359.31;2077344;28;20212;-60
2023/05/03 08:15:12;;;;;;;20.98;12.25;;;;;;;12.02;71.87;97365.81;2076669;28;20217;-60
2023/05/03 08:16:13;;;;;;;20.48;12.23;;;;;;;11.90;73.63;97358.41;2077899;28;20204;-60
2023/05/03 08:17:15;;;;;;;21.38;11.88;;;;;;;12.67;72.17;97370.22;2074178;28;20193;-60
2023/05/03 08:18:16;;;;;;;22.40;12.55;;;;;;;13.18;70.22;97365.44;2077236;28;20636;-60
2023/05/03 08:19:17;;;;;;;17.50;11.45;;;;;;;13.64;68.75;97359.97;2077682;28;20636;-60
2023/05/03 08:20:19;;;;;;;26.85;13.32;;;;;;;14.43;67.97;97372.88;2076669;28;20247;-60
2023/05/03 08:21:23;;;;;;;16.02;10.73;;;;;;;14.77;66.57;97363.34;2076474;28;20197;-60
2023/05/03 08:22:26;;;;;;;18.58;11.38;;;;;;;13.95;67.04;97372.50;2076471;28;20193;-60
2023/05/03 08:23:27;;;;;;;27.50;11.93;;;;;;;13.01;69.73;97364.41;2077836;28;20559;-60
2023/05/03 08:24:29;;;;;;;24.38;12.50;;;;;;;13.41;69.27;97368.84;2077079;28;20197;-60
2023/05/03 08:25:31;;;;;;;15.73;10.27;;;;;;;13.70;68.98;97357.91;2077414;28;20221;-60
2023/05/03 08:26:34;;;;;;;20.63;12.38;;;;;;;13.91;67.58;97375.34;2075739;28;20240;-60
2023/05/03 08:27:36;;;;;;;19.10;12.57;;;;;;;13.71;67.65;97375.34;2077373;28;20492;-61
2023/05/03 08:28:37;;;;;;;17.52;11.00;;;;;;;13.84;67.36;97372.16;2077685;28;20205;-60
2023/05/03 08:29:39;;;;;;;18.58;11.30;;;;;;;12.54;71.26;97373.38;2077884;28;20204;-60
2023/05/03 08:30:40;;;;;;;21.77;12.10;;;;;;;12.72;71.55;97366.50;2077295;28;20267;-60
2023/05/03 08:31:42;;;;;;;17.48;11.60;;;;;;;12.85;71.89;97365.97;2075867;28;20189;-61
2023/05/03 08:32:45;;;;;;;17.98;12.15;;;;;;;13.32;70.88;97359.59;2076847;28;20620;-60
2023/05/03 08:33:46;;;;;;;26.00;11.50;;;;;;;13.33;69.97;97363.91;2069371;28;20660;-60
2023/05/03 08:34:48;;;;;;;16.75;11.43;;;;;;;13.74;68.36;97365.63;2076416;28;20202;-60
2023/05/03 08:35:50;;;;;;;22.50;11.55;;;;;;;13.98;68.12;97366.25;2077745;28;20201;-60
2023/05/03 08:36:51;;;;;;;18.55;12.35;;;;;;;14.51;67.29;97370.72;2075690;28;20573;-60
2023/05/03 08:37:52;;;;;;;17.98;11.50;;;;;;;15.13;65.56;97365.03;2077857;28;20672;-60
2023/05/03 08:38:54;;;;;;;20.58;11.10;;;;;;;15.83;64.42;97364.03;2077225;28;20235;-60
2023/05/03 08:39:55;;;;;;;16.02;10.15;;;;;;;15.86;64.38;97369.13;2071453;28;20212;-61
2023/05/03 08:41:03;;;;;;;17.33;11.20;;;;;;;14.59;64.53;97367.72;2072345;28;20225;-60
2023/05/03 08:42:08;;;;;;;18.58;10.57;;;;;;;14.30;66.42;97369.16;2069985;28;20575;-60
2023/05/03 08:43:13;;;;;;;19.58;10.68;;;;;;;14.68;65.98;97375.16;2072211;28;20202;-61
2023/05/03 08:44:21;;;;;;;19.60;10.35;;;;;;;14.91;65.96;97374.97;2072312;28;20202;-60
2023/05/03 08:45:23;;;;;;;20.15;12.07;;;;;;;15.11;65.92;97369.53;2071601;28;20252;-61
2023/05/03 08:46:26;;;;;;;18.10;9.98;;;;;;;15.13;65.93;97361.56;2070998;28;20560;-61
2023/05/03 08:47:32;;;;;;;21.55;11.93;;;;;;;15.85;64.93;97367.44;2071521;28;20252;-61
2023/05/03 08:48:33;;;;;;;21.10;11.00;;;;;;;15.79;64.61;97367.72;2071658;28;20253;-60
2023/05/03 08:49:36;;;;;;;19.05;10.75;;;;;;;15.97;63.38;97368.53;2072278;28;20232;-61
2023/05/03 08:50:41;;;;;;;20.90;11.55;;;;;;;16.08;64.71;97371.44;2071436;28;20575;-61
2023/05/03 08:51:48;;;;;;;19.98;10.43;;;;;;;16.31;64.12;97377.22;2069748;28;20285;-60
2023/05/03 08:52:49;;;;;;;19.80;13.07;;;;;;;15.39;62.54;97357.56;2071164;28;20645;-61
2023/05/03 08:53:51;;;;;;;17.73;11.55;;;;;;;15.02;64.20;97370.84;2072071;28;20289;-61
2023/05/03 08:54:53;;;;;;;19.15;12.23;;;;;;;14.93;64.41;97375.72;2071582;28;20557;-61
2023/05/03 08:55:54;;;;;;;18.92;10.77;;;;;;;13.88;66.00;97371.09;2071861;28;20217;-61
2023/05/03 08:56:56;;;;;;;20.52;10.85;;;;;;;13.26;68.78;97379.06;2069561;28;20889;-60
2023/05/03 08:57:59;;;;;;;27.67;12.68;;;;;;;13.64;67.96;97383.59;2072346;28;20555;-60
2023/05/03 08:59:06;;;;;;;23.77;12.80;;;;;;;13.77;69.04;97382.09;2071730;28;20198;-60
2023/05/03 09:00:10;;;;;;;20.70;11.80;;;;;;;14.66;68.25;97382.28;2070874;28;20222;-60
2023/05/03 09:01:13;;;;;;;17.88;11.60;;;;;;;15.42;66.73;97381.06;2071365;28;20655;-60
2023/05/03 09:02:15;;;;;;;24.35;12.48;;;;;;;15.65;64.83;97361.41;2070582;28;20224;-61
2023/05/03 09:03:17;;;;;;;20.50;11.98;;;;;;;13.82;67.22;97369.59;2071371;28;20284;-61
2023/05/03 09:04:18;;;;;;;22.20;11.60;;;;;;;14.57;66.60;97379.25;2072195;28;20206;-60
2023/05/03 09:05:20;;;;;;;24.30;11.98;;;;;;;14.80;65.92;97375.50;2071750;28;20313;-60
2023/05/03 09:06:26;;;;;;;22.45;11.60;;;;;;;15.55;64.59;97376.00;2071390;28;20205;-61
2023/05/03 09:07:27;;;;;;;25.48;11.65;;;;;;;15.90;63.91;97367.19;2070387;28;20271;-61
2023/05/03 09:08:30;;;;;;;19.30;10.95;;;;;;;16.29;63.58;97372.03;2072058;28;20212;-61
2023/05/03 09:09:32;;;;;;;18.25;11.00;;;;;;;16.51;63.30;97365.53;2071828;28;20547;-61
2023/05/03 09:10:39;;;;;;;17.05;11.30;;;;;;;16.42;62.96;97374.81;2071094;28;20221;-61
2023/05/03 09:11:41;;;;;;;19.55;12.27;;;;;;;16.24;64.84;97370.56;2070638;28;20197;-62
2023/05/03 09:12:44;;;;;;;18.88;12.00;;;;;;;16.42;63.81;97366.91;2071954;28;20240;-61
2023/05/03 09:13:45;;;;;;;18.75;13.32;;;;;;;16.36;63.65;97367.25;2072043;28;20212;-61
2023/05/03 09:14:47;;;;;;;23.90;13.23;;;;;;;15.97;65.39;97365.91;2071614;28;20642;-61
2023/05/03 09:15:53;;;;;;;20.33;12.32;;;;;;;16.73;63.97;97359.84;2071595;28;20209;-60
2023/05/03 09:16:55;;;;;;;16.77;10.45;;;;;;;16.83;63.36;97362.81;2070695;28;20198;-61
2023/05/03 09:18:07;;;;;;;19.15;11.70;;;;;;;16.88;63.19;97370.47;2072071;28;20198;-61
2023/05/03 09:19:11;;;;;;;15.35;10.38;;;;;;;17.00;60.29;97369.78;2079124;28;20470;-61
2023/05/03 09:20:12;;;;;;;18.08;11.32;;;;;;;17.39;59.93;97360.38;2078362;28;20247;-61
2023/05/03 09:21:18;;;;;;;21.30;11.48;;;;;;;17.64;60.11;97372.09;2071657;28;20221;-61
2023/05/03 09:22:27;;;;;;;16.63;10.68;;;;;;;17.42;60.02;97360.22;2071515;28;20208;-61
2023/05/03 09:23:29;;;;;;;17.48;11.50;;;;;;;17.52;60.42;97364.91;2071583;28;20501;-61
2023/05/03 09:24:31;;;;;;;21.88;10.50;;;;;;;17.19;60.94;97364.25;2072026;28;20280;-61
2023/05/03 09:25:46;;;;;;;20.05;11.23;;;;;;;15.97;63.79;97373.81;2071390;28;20798;-61
2023/05/03 09:26:50;;;;;;;19.52;11.75;;;;;;;16.26;61.37;97361.66;2070617;28;20201;-60
2023/05/03 09:28:01;;;;;;;27.30;13.88;;;;;;;16.04;63.29;97374.34;2072072;28;20343;-61
2023/05/03 09:29:03;;;;;;;17.95;11.38;;;;;;;16.87;62.42;97363.50;2071882;28;20782;-61
2023/05/03 09:30:18;;;;;;;20.98;12.07;;;;;;;17.65;60.51;97360.59;2071361;28;20765;-61
2023/05/03 09:31:19;;;;;;;22.90;10.68;;;;;;;17.90;60.54;97362.56;2071837;28;20201;-61
2023/05/03 09:32:21;;;;;;;23.15;12.43;;;;;;;18.25;59.59;97367.41;2071770;28;20244;-61
2023/05/03 09:33:28;;;;;;;17.75;9.93;;;;;;;18.25;59.25;97362.09;2070573;28;20718;-61
2023/05/03 09:34:34;;;;;;;16.38;9.90;;;;;;;17.95;59.20;97363.13;2070049;28;20197;-61
2023/05/03 09:35:54;;;;;;;23.60;11.82;;;;;;;17.71;60.27;97364.63;2070729;28;20221;-61
2023/05/03 09:36:56;;;;;;;17.05;11.02;;;;;;;17.72;60.31;97351.31;2071918;28;20248;-61
2023/05/03 09:37:58;;;;;;;14.00;10.32;;;;;;;17.89;60.41;97355.56;2070853;28;20296;-61
2023/05/03 09:39:15;;;;;;;16.40;11.20;;;;;;;17.53;60.50;97363.97;2071289;28;20198;-61
2023/05/03 09:40:17;;;;;;;17.35;9.68;;;;;;;17.49;60.10;97358.03;2070953;28;20233;-61
2023/05/03 09:41:29;;;;;;;19.65;10.32;;;;;;;17.57;59.85;97352.28;2070366;28;20571;-61
2023/05/03 09:42:31;;;;;;;16.27;10.10;;;;;;;17.79;59.59;97363.22;2069927;28;20221;-61
2023/05/03 09:43:34;;;;;;;15.30;9.98;;;;;;;17.82;59.38;97354.25;2068517;28;20671;-61
2023/05/03 09:44:50;;;;;;;15.55;9.80;;;;;;;18.13;59.31;97368.19;2071710;28;20770;-61
2023/05/03 09:45:52;;;;;;;21.63;10.35;;;;;;;18.63;58.73;97362.34;2071581;28;20684;-62
2023/05/03 09:47:07;;;;;;;16.02;10.85;;;;;;;18.24;58.52;97364.84;2070884;28;20197;-61
2023/05/03 09:48:08;;;;;;;18.98;10.45;;;;;;;18.39;58.34;97358.56;2071499;28;20262;-61
2023/05/03 09:49:10;;;;;;;16.73;9.80;;;;;;;19.01;57.88;97364.28;2071111;28;20373;-61
2023/05/03 09:50:12;;;;;;;14.20;10.18;;;;;;;18.97;57.44;97365.44;2071006;28;20225;-61
2023/05/03 09:51:13;;;;;;;16.33;9.88;;;;;;;18.48;58.06;97366.88;2070474;28;20194;-62
2023/05/03 09:52:15;;;;;;;16.40;10.60;;;;;;;18.36;58.53;97369.34;2071661;28;20194;-61
2023/05/03 09:53:20;;;;;;;14.43;9.77;;;;;;;19.00;57.53;97357.28;2071533;28;20566;-61
2023/05/03 09:54:23;;;;;;;14.07;9.90;;;;;;;19.48;56.89;97361.97;2071528;28;20562;-61
2023/05/03 09:55:26;;;;;;;15.07;9.85;;;;;;;19.55;56.57;97368.53;2069356;28;20541;-61
2023/05/03 09:56:28;;;;;;;14.15;8.80;;;;;;;19.82;55.29;97370.19;2071714;28;20517;-61
2023/05/03 09:57:31;;;;;;;14.13;9.18;;;;;;;19.97;55.58;97374.47;2071570;28;20202;-62
2023/05/03 09:58:34;;;;;;;13.10;9.93;;;;;;;20.24;55.21;97368.13;2071001;28;20204;-61
2023/05/03 09:59:37;;;;;;;14.75;10.10;;;;;;;19.52;56.11;97368.75;2071151;28;20190;-61
2023/05/03 10:00:41;;;;;;;23.60;9.60;;;;;;;19.58;56.09;97371.81;2071076;28;20256;-61
2023/05/03 10:01:43;;;;;;;16.38;10.15;;;;;;;19.51;56.70;97373.19;2070855;28;20205;-61
2023/05/03 10:02:48;;;;;;;15.65;10.70;;;;;;;18.97;57.51;97370.72;2070873;28;20201;-61
2023/05/03 10:03:51;;;;;;;15.85;10.40;;;;;;;19.22;56.60;97369.91;2070646;28;20723;-61
2023/05/03 10:04:55;;;;;;;21.40;11.05;;;;;;;19.09;56.15;97361.94;2070724;28;20205;-61
2023/05/03 10:06:00;;;;;;;13.57;10.18;;;;;;;18.86;56.40;97360.84;2071403;28;20202;-61
2023/05/03 10:07:06;;;;;;;14.25;9.60;;;;;;;18.50;56.36;97363.19;2071644;28;20280;-62
2023/05/03 10:08:09;;;;;;;13.30;10.02;;;;;;;18.46;57.16;97366.94;2071474;28;20404;-61
2023/05/03 10:09:19;;;;;;;14.40;10.18;;;;;;;18.78;56.88;97371.94;2071602;28;20742;-61
2023/05/03 10:10:21;;;;;;;13.68;10.35;;;;;;;19.06;56.64;97370.13;2067562;28;20218;-61
2023/05/03 10:11:25;;;;;;;13.43;9.55;;;;;;;19.60;55.61;97374.34;2069003;28;20664;-61
2023/05/03 10:12:27;;;;;;;14.30;9.80;;;;;;;19.85;54.78;97359.41;2071318;28;20683;-61
2023/05/03 10:13:30;;;;;;;16.60;9.25;;;;;;;19.68;55.03;97366.72;2071401;28;20240;-61
2023/05/03 10:14:31;;;;;;;16.40;10.00;;;;;;;19.47;53.88;97362.94;2071401;28;20627;-61
2023/05/03 10:15:36;;;;;;;12.25;10.63;;;;;;;18.84;53.99;97360.06;2070543;28;20232;-61
2023/05/03 10:16:42;;;;;;;18.95;11.80;;;;;;;18.93;54.49;97364.78;2071196;28;20535;-61
2023/05/03 10:17:43;;;;;;;17.60;10.38;;;;;;;19.02;55.79;97361.53;2071227;28;20289;-61
2023/05/03 10:19:13;;;;;;;14.90;9.43;;;;;;;19.65;55.99;97358.97;2071585;28;20201;-61
2023/05/03 10:20:32;;;;;;;16.52;9.18;;;;;;;20.23;54.90;97358.47;2073727;28;20576;-62
2023/05/03 10:22:06;;;;;;;18.77;10.20;;;;;;;20.01;53.58;97360.03;2073276;28;20201;-61
2023/05/03 10:23:12;;;;;;;15.43;9.90;;;;;;;20.25;53.59;97359.19;2071034;28;20198;-61
2023/05/03 10:24:15;;;;;;;16.67;10.43;;;;;;;20.47;52.06;97360.28;2071480;28;20206;-61
2023/05/03 10:25:17;;;;;;;14.02;9.45;;;;;;;20.60;52.54;97355.75;2070637;28;20230;-61
2023/05/03 10:26:18;;;;;;;20.73;10.73;;;;;;;19.96;53.19;97354.19;2071394;28;20194;-61
2023/05/03 10:27:20;;;;;;;14.68;10.38;;;;;;;19.75;54.23;97357.38;2071265;28;20233;-61
2023/05/03 10:28:21;;;;;;;12.80;10.00;;;;;;;19.38;54.06;97354.66;2071707;28;20206;-61
2023/05/03 10:29:33;;;;;;;12.70;10.43;;;;;;;19.61;55.36;97357.50;2070892;28;20214;-61
2023/05/03 10:30:36;;;;;;;15.77;10.48;;;;;;;20.50;53.65;97352.94;2070694;28;20630;-61
2023/05/03 10:31:47;;;;;;;16.08;9.95;;;;;;;21.09;52.99;97345.06;2071398;28;20221;-62
2023/05/03 10:32:49;;;;;;;13.02;9.18;;;;;;;20.84;52.57;97346.97;2071310;28;20643;-61
2023/05/03 10:33:51;;;;;;;16.42;10.18;;;;;;;20.69;53.18;97346.25;2070773;28;20197;-62
2023/05/03 10:35:00;;;;;;;16.83;9.90;;;;;;;20.42;52.44;97352.66;2070337;28;20193;-62
2023/05/03 10:36:09;;;;;;;17.80;10.07;;;;;;;20.86;52.30;97352.97;2070701;28;20282;-61
2023/05/03 10:37:10;;;;;;;18.40;9.25;;;;;;;21.37;51.56;97346.47;2068962;28;20198;-61
2023/05/03 10:38:13;;;;;;;21.40;10.70;;;;;;;21.34;50.09;97344.03;2065038;28;20201;-61
2023/05/03 10:39:17;;;;;;;15.10;9.68;;;;;;;21.58;49.20;97327.19;2073695;28;20205;-61
2023/05/03 10:40:20;;;;;;;15.23;9.77;;;;;;;21.16;50.49;97346.31;2070324;28;20228;-61
2023/05/03 10:41:26;;;;;;;12.13;9.05;;;;;;;20.87;51.69;97350.22;2070729;28;20202;-61
2023/05/03 10:42:27;;;;;;;12.85;8.85;;;;;;;21.44;50.48;97338.88;2070581;28;20643;-62
2023/05/03 10:43:32;;;;;;;18.15;10.20;;;;;;;21.24;51.95;97341.25;2071379;28;20661;-61
2023/05/03 10:44:50;;;;;;;15.50;9.95;;;;;;;21.39;50.77;97333.06;2071382;28;20289;-61
2023/05/03 10:45:51;;;;;;;14.55;8.52;;;;;;;21.73;49.77;97331.28;2069062;28;20296;-61
2023/05/03 10:46:53;;;;;;;17.30;10.10;;;;;;;21.42;50.57;97336.34;2069808;28;20259;-61
2023/05/03 10:48:15;;;;;;;15.68;9.82;;;;;;;21.09;49.73;97331.81;2071190;28;20575;-62
2023/05/03 10:49:18;;;;;;;13.20;9.43;;;;;;;20.73;50.97;97333.66;2071059;28;20197;-61
2023/05/03 10:50:24;;;;;;;15.88;9.82;;;;;;;20.81;50.55;97341.88;2070705;28;20313;-62
2023/05/03 10:51:29;;;;;;;13.65;8.50;;;;;;;20.93;50.75;97334.81;2070973;28;20252;-61
2023/05/03 10:52:34;;;;;;;15.73;9.05;;;;;;;21.08;51.17;97330.09;2071320;28;20248;-62
2023/05/03 10:53:41;;;;;;;18.33;9.10;;;;;;;21.46;50.08;97331.63;2071144;28;20198;-61
2023/05/03 10:54:42;;;;;;;12.48;8.55;;;;;;;21.54;48.60;97326.53;2070662;28;20201;-62
2023/05/03 10:56:06;;;;;;;17.90;8.23;;;;;;;22.07;49.28;97328.59;2070186;28;20236;-61
2023/05/03 10:57:08;;;;;;;17.08;8.30;;;;;;;22.17;48.00;97332.19;2069484;28;20633;-61
2023/05/03 10:58:15;;;;;;;11.77;8.40;;;;;;;22.26;48.47;97332.41;2070558;28;20284;-61
2023/05/03 10:59:17;;;;;;;16.27;8.32;;;;;;;22.54;47.14;97316.84;2070823;28;20285;-62
2023/05/03 11:00:23;;;;;;;14.23;8.77;;;;;;;22.33;47.23;97333.59;2070223;28;20275;-62
2023/05/03 11:01:26;;;;;;;16.58;8.50;;;;;;;22.24;46.95;97329.88;2068548;28;20202;-62
2023/05/03 11:02:32;;;;;;;13.05;8.57;;;;;;;21.57;47.72;97318.34;2067760;28;20556;-61
2023/05/03 11:03:45;;;;;;;13.05;7.80;;;;;;;21.57;47.75;97323.66;2078812;28;20196;-62
2023/05/03 11:04:51;;;;;;;12.15;7.50;;;;;;;21.02;47.72;97316.34;2076631;28;20204;-62
2023/05/03 11:05:52;;;;;;;10.88;7.50;;;;;;;21.38;48.10;97321.56;2071005;28;20209;-62
2023/05/03 11:06:55;;;;;;;13.95;8.63;;;;;;;21.37;47.51;97307.47;2071177;28;20194;-62
2023/05/03 11:08:17;;;;;;;11.65;7.22;;;;;;;20.52;48.83;97310.41;2070422;28;20198;-62
2023/05/03 11:09:19;;;;;;;15.52;7.30;;;;;;;20.65;49.67;97313.81;2070720;28;20202;-61
2023/05/03 11:10:21;;;;;;;11.63;8.07;;;;;;;21.03;48.22;97309.25;2068676;28;20128;-62
2023/05/03 11:11:22;;;;;;;12.10;8.20;;;;;;;21.22;48.16;97308.66;2069678;28;20206;-62
2023/05/03 11:12:24;;;;;;;12.13;7.80;;;;;;;20.98;48.37;97308.75;2071195;28;20204;-62
2023/05/03 11:13:26;;;;;;;10.98;7.72;;;;;;;21.62;48.02;97299.41;2071225;28;20240;-62
2023/05/03 11:14:27;;;;;;;12.95;7.40;;;;;;;21.90;48.04;97305.16;2071175;28;20734;-63
2023/05/03 11:15:29;;;;;;;12.60;7.68;;;;;;;21.86;47.80;97307.22;2069219;28;20229;-62
2023/05/03 11:16:31;;;;;;;11.05;7.47;;;;;;;22.43;47.40;97305.28;2071241;28;20201;-62
2023/05/03 11:17:32;;;;;;;10.93;6.82;;;;;;;22.64;47.20;97300.00;2071191;28;20812;-62
2023/05/03 11:18:35;;;;;;;9.90;6.07;;;;;;;23.01;47.16;97301.38;2071103;28;20636;-62
2023/05/03 11:19:38;;;;;;;11.43;6.63;;;;;;;22.58;47.10;97297.84;2071119;28;20482;-63
2023/05/03 11:20:40;;;;;;;12.88;7.75;;;;;;;21.67;47.79;97294.56;2069549;28;20233;-64
2023/05/03 11:21:42;;;;;;;15.27;7.53;;;;;;;21.69;48.73;97292.63;2071217;28;20198;-63
2023/05/03 11:22:45;;;;;;;13.10;6.85;;;;;;;22.08;47.58;97295.72;2070014;28;20213;-63
2023/05/03 11:23:47;;;;;;;14.25;8.02;;;;;;;21.85;45.90;97282.47;2066996;28;20653;-63
2023/05/03 11:24:50;;;;;;;14.10;7.88;;;;;;;21.73;48.26;97293.25;2066383;28;20202;-63
2023/05/03 11:25:52;;;;;;;11.43;6.68;;;;;;;21.85;48.63;97287.78;2067400;28;20637;-64
2023/05/03 11:26:53;;;;;;;9.77;6.28;;;;;;;22.40;47.82;97292.25;2062580;28;20202;-64
2023/05/03 11:27:55;;;;;;;12.60;7.43;;;;;;;22.25;46.02;97286.34;2072466;28;20200;-63
2023/05/03 11:28:57;;;;;;;15.38;7.18;;;;;;;22.56;44.98;97291.81;2071221;28;20198;-64
2023/05/03 11:29:58;;;;;;;11.50;7.07;;;;;;;22.98;45.40;97294.50;2069712;28;20256;-63
2023/05/03 11:31:01;;;;;;;10.20;6.30;;;;;;;22.25;47.12;97289.00;2071076;28;20304;-63
2023/05/03 11:32:02;;;;;;;14.85;7.15;;;;;;;22.27;46.95;97289.72;2077759;28;20287;-64
2023/05/03 11:33:05;;;;;;;11.20;7.53;;;;;;;21.81;45.86;97296.13;2068621;28;20547;-64
2023/05/03 11:34:08;;;;;;;13.63;6.90;;;;;;;22.26;45.42;97288.03;2066297;28;20201;-64
2023/05/03 11:35:12;;;;;;;13.77;7.05;;;;;;;21.10;47.21;97289.19;2069898;28;20263;-63
2023/05/03 11:36:15;;;;;;;13.50;7.25;;;;;;;22.28;44.97;97294.09;2070988;28;20198;-63
2023/05/03 11:37:16;;;;;;;10.98;6.00;;;;;;;23.09;45.11;97285.56;2071125;28;20205;-63
2023/05/03 11:38:17;;;;;;;18.38;7.65;;;;;;;21.62;43.68;97292.28;2070730;28;20201;-64
2023/05/03 11:39:19;;;;;;;12.38;6.95;;;;;;;19.89;46.19;97292.00;2070880;28;20198;-64
2023/05/03 11:40:21;;;;;;;15.60;8.05;;;;;;;18.10;49.39;97276.72;2068735;28;20225;-64
2023/05/03 11:41:23;;;;;;;17.35;7.00;;;;;;;18.57;50.71;97292.22;2069899;28;20202;-63
2023/05/03 11:42:25;;;;;;;20.38;7.20;;;;;;;19.35;50.41;97295.75;2070879;28;20205;-64
2023/05/03 11:43:27;;;;;;;15.98;7.53;;;;;;;18.57;49.46;97289.56;2071230;28;20552;-64
2023/05/03 11:44:29;;;;;;;19.95;7.10;;;;;;;19.31;49.91;97292.50;2070907;28;20205;-63
2023/05/03 11:45:38;;;;;;;14.85;7.90;;;;;;;18.71;48.06;97283.34;2068389;28;20313;-63
2023/05/03 11:46:40;;;;;;;15.77;7.95;;;;;;;18.50;49.41;97286.50;2070630;28;20194;-63
2023/05/03 11:47:41;;;;;;;17.10;7.45;;;;;;;19.29;49.62;97278.53;2071259;28;20198;-63
2023/05/03 11:48:44;;;;;;;12.52;7.05;;;;;;;20.20;47.58;97289.72;2070634;28;20198;-63
2023/05/03 11:49:52;;;;;;;15.65;6.75;;;;;;;20.27;48.73;97284.84;2068057;28;20240;-63
2023/05/03 11:50:54;;;;;;;10.48;6.10;;;;;;;20.21;50.01;97284.34;2063643;28;20214;-64
2023/05/03 11:51:56;;;;;;;13.52;8.00;;;;;;;21.68;47.22;97283.81;2072607;28;20208;-63
2023/05/03 11:52:58;;;;;;;16.00;7.65;;;;;;;21.25;47.40;97267.75;2071055;28;20198;-64
2023/05/03 11:54:02;;;;;;;10.02;5.95;;;;;;;21.26;48.10;97277.41;2071201;28;20225;-63
2023/05/03 11:55:25;;;;;;;9.70;6.90;;;;;;;21.64;46.31;97270.91;2070353;28;20622;-63
2023/05/03 11:56:26;;;;;;;10.00;6.15;;;;;;;22.21;46.68;97278.72;2071033;28;20225;-63
2023/05/03 11:57:30;;;;;;;12.70;6.95;;;;;;;21.78;45.39;97273.28;2071177;28;20586;-64
2023/05/03 11:58:32;;;;;;;10.48;7.28;;;;;;;21.45;45.45;97274.97;2071164;28;20194;-63
2023/05/03 11:59:35;;;;;;;11.13;6.35;;;;;;;21.61;45.69;97273.78;2070967;28;20240;-63